Time,TemperatureF,DewpointF,PressureIn,WindDirection,WindDirectionDegrees,WindSpeedMPH,WindSpeedGustMPH,Humidity,HourlyPrecipIn,Conditions,Clouds,dailyrainin,SolarRadiationWatts/m^2,SoftwareType,DateUTC
2013-01-29 00:21:00,19.0,15.0,-100.00,West,277,7.0,17.0,85,0.00,,,0.14,0.000000,,2013-01-29 07:21:00,
2013-01-29 00:31:00,19.0,15.0,-100.00,West,277,7.0,17.0,85,0.00,,,0.14,0.000000,,2013-01-29 07:31:00,
2013-01-29 00:41:00,19.0,15.0,-100.00,West,277,7.0,17.0,85,0.00,,,0.14,0.000000,,2013-01-29 07:41:00,
2013-01-29 00:51:00,18.0,14.0,-100.00,WNW,291,9.0,13.0,85,0.00,,,0.06,0.000000,,2013-01-29 07:51:00,
2013-01-29 01:11:00,18.0,14.0,-100.00,WNW,291,9.0,13.0,85,0.00,,,0.06,0.000000,,2013-01-29 08:11:00,
2013-01-29 01:21:00,18.0,14.0,-100.00,WNW,291,9.0,13.0,85,0.00,,,0.06,0.000000,,2013-01-29 08:21:00,
2013-01-29 01:31:00,18.0,14.0,-100.00,WNW,291,9.0,13.0,85,0.00,,,0.06,0.000000,,2013-01-29 08:31:00,
2013-01-29 01:41:00,18.0,14.0,-100.00,WNW,291,9.0,13.0,85,0.00,,,0.06,0.000000,,2013-01-29 08:41:00,
2013-01-29 01:51:00,17.0,12.0,-100.00,WNW,300,9.0,15.0,80,0.00,,,0.06,0.000000,,2013-01-29 08:51:00,
2013-01-29 02:21:00,17.0,12.0,-100.00,WNW,300,9.0,15.0,80,0.00,,,0.06,0.000000,,2013-01-29 09:21:00,
2013-01-29 02:31:00,17.0,12.0,-100.00,WNW,300,9.0,15.0,80,0.00,,,0.06,0.000000,,2013-01-29 09:31:00,
2013-01-29 02:42:00,17.0,12.0,-100.00,WNW,300,9.0,15.0,80,0.00,,,0.06,0.000000,,2013-01-29 09:42:00,
2013-01-29 03:51:00,14.0,9.0,-100.00,West,281,5.0,8.0,80,-99.99,,,0.04,0.000000,,2013-01-29 10:51:00,
2013-01-29 04:11:00,14.0,9.0,-100.00,West,281,5.0,8.0,80,-99.99,,,0.04,0.000000,,2013-01-29 11:11:00,
2013-01-29 04:21:00,14.0,9.0,-100.00,West,281,5.0,8.0,80,-99.99,,,0.04,0.000000,,2013-01-29 11:21:00,
2013-01-29 04:31:00,14.0,9.0,-100.00,West,281,5.0,8.0,80,-99.99,,,0.04,0.000000,,2013-01-29 11:31:00,
2013-01-29 04:42:00,14.0,9.0,-100.00,West,281,5.0,8.0,80,-99.99,,,0.04,0.000000,,2013-01-29 11:42:00,
2013-01-29 04:51:00,14.0,11.0,-100.00,WNW,285,3.0,5.0,86,0.00,,,0.02,0.000000,,2013-01-29 11:51:00,
2013-01-29 05:22:00,14.0,11.0,-100.00,WNW,285,3.0,5.0,86,0.00,,,0.02,0.000000,,2013-01-29 12:22:00,
2013-01-29 05:32:00,14.0,11.0,-100.00,WNW,285,3.0,5.0,86,0.00,,,0.02,0.000000,,2013-01-29 12:32:00,
2013-01-29 05:42:00,14.0,11.0,-100.00,WNW,285,3.0,5.0,86,0.00,,,0.02,0.000000,,2013-01-29 12:42:00,
2013-01-29 05:51:00,12.0,7.0,-100.00,NNW,340,1.0,5.0,79,0.00,,,0.02,0.000000,,2013-01-29 12:51:00,
2013-01-29 06:22:00,12.0,7.0,-100.00,NNW,340,1.0,5.0,79,0.00,,,0.02,0.000000,,2013-01-29 13:22:00,
2013-01-29 06:32:00,12.0,7.0,-100.00,NNW,340,1.0,5.0,79,0.00,,,0.02,0.000000,,2013-01-29 13:32:00,
2013-01-29 06:42:00,12.0,7.0,-100.00,NNW,340,1.0,5.0,79,0.00,,,0.02,0.000000,,2013-01-29 13:42:00,
2013-01-29 06:51:00,10.0,5.0,-100.00,NNE,16,1.0,4.0,81,0.00,,,-99.99,0.000000,,2013-01-29 13:51:00,
2013-01-29 07:12:00,10.0,5.0,-100.00,NNE,16,1.0,4.0,81,0.00,,,-99.99,0.000000,,2013-01-29 14:12:00,
2013-01-29 07:21:00,10.0,5.0,-100.00,NNE,16,1.0,4.0,81,0.00,,,-99.99,0.000000,,2013-01-29 14:21:00,
2013-01-29 07:32:00,10.0,5.0,-100.00,NNE,16,1.0,4.0,81,0.00,,,-99.99,0.000000,,2013-01-29 14:32:00,
2013-01-29 07:43:00,10.0,5.0,-100.00,NNE,16,1.0,4.0,81,0.00,,,-99.99,0.000000,,2013-01-29 14:43:00,
2013-01-29 07:51:00,13.0,7.0,-100.00,SW,218,1.0,4.0,76,0.00,,,0.02,20.000000,,2013-01-29 14:51:00,
2013-01-29 08:12:00,13.0,7.0,-100.00,SW,218,1.0,4.0,76,0.00,,,0.02,20.000000,,2013-01-29 15:12:00,
2013-01-29 08:22:00,13.0,7.0,-100.00,SW,218,1.0,4.0,76,0.00,,,0.02,20.000000,,2013-01-29 15:22:00,
2013-01-29 08:42:00,13.0,7.0,-100.00,SW,218,1.0,4.0,76,0.00,,,0.02,20.000000,,2013-01-29 15:42:00,
2013-01-29 08:51:00,14.0,7.0,-100.00,WSW,256,4.0,7.0,74,0.00,,,0.02,246.000000,,2013-01-29 15:51:00,
2013-01-29 09:12:00,14.0,7.0,-100.00,WSW,256,4.0,7.0,74,0.00,,,0.02,246.000000,,2013-01-29 16:12:00,
2013-01-29 09:22:00,14.0,7.0,-100.00,WSW,256,4.0,7.0,74,0.00,,,0.02,246.000000,,2013-01-29 16:22:00,
2013-01-29 09:32:00,14.0,7.0,-100.00,WSW,256,4.0,7.0,74,0.00,,,0.02,246.000000,,2013-01-29 16:32:00,
2013-01-29 09:42:00,14.0,7.0,-100.00,WSW,256,4.0,7.0,74,0.00,,,0.02,246.000000,,2013-01-29 16:42:00,
2013-01-29 09:51:00,14.0,8.0,-100.00,West,267,7.0,10.0,76,0.00,,,0.02,319.000000,,2013-01-29 16:51:00,
2013-01-29 10:12:00,14.0,8.0,-100.00,West,267,7.0,10.0,76,0.00,,,0.02,319.000000,,2013-01-29 17:12:00,
2013-01-29 10:21:00,14.0,8.0,-100.00,West,267,7.0,10.0,76,0.00,,,0.02,319.000000,,2013-01-29 17:21:00,
2013-01-29 10:32:00,14.0,8.0,-100.00,West,267,7.0,10.0,76,0.00,,,0.02,319.000000,,2013-01-29 17:32:00,
2013-01-29 10:42:00,14.0,8.0,-100.00,West,267,7.0,10.0,76,0.00,,,0.02,319.000000,,2013-01-29 17:42:00,
2013-01-29 12:51:00,22.0,13.0,-100.00,SE,139,3.0,7.0,68,0.04,,,0.13,564.000000,,2013-01-29 19:51:00,
2013-01-29 13:22:00,22.0,13.0,-100.00,SE,139,3.0,7.0,68,0.04,,,0.13,564.000000,,2013-01-29 20:22:00,
2013-01-29 13:33:00,22.0,13.0,-100.00,SE,139,3.0,7.0,68,0.04,,,0.13,564.000000,,2013-01-29 20:33:00,
2013-01-29 13:42:00,22.0,13.0,-100.00,SE,139,3.0,7.0,68,0.04,,,0.13,564.000000,,2013-01-29 20:42:00,
2013-01-29 13:51:00,23.0,13.0,-100.00,SE,129,3.0,6.0,64,0.02,,,0.15,483.000000,,2013-01-29 20:51:00,
2013-01-29 14:22:00,23.0,13.0,-100.00,SE,129,3.0,6.0,64,0.02,,,0.15,483.000000,,2013-01-29 21:22:00,
2013-01-29 14:33:00,23.0,13.0,-100.00,SE,129,3.0,6.0,64,0.02,,,0.15,483.000000,,2013-01-29 21:33:00,
2013-01-29 14:42:00,23.0,13.0,-100.00,SE,129,3.0,6.0,64,0.02,,,0.15,483.000000,,2013-01-29 21:42:00,
2013-01-29 14:51:00,26.0,14.0,-100.00,SE,134,3.0,6.0,59,0.03,,,0.16,578.000000,,2013-01-29 21:51:00,
2013-01-29 15:22:00,26.0,14.0,-100.00,SE,134,3.0,6.0,59,0.03,,,0.16,578.000000,,2013-01-29 22:22:00,
2013-01-29 15:33:00,26.0,14.0,-100.00,SE,134,3.0,6.0,59,0.03,,,0.16,578.000000,,2013-01-29 22:33:00,
2013-01-29 15:42:00,26.0,14.0,-100.00,SE,134,3.0,6.0,59,0.03,,,0.16,578.000000,,2013-01-29 22:42:00,
2013-01-29 15:51:00,22.0,14.0,-100.00,SW,236,2.0,7.0,72,0.01,,,0.17,277.000000,,2013-01-29 22:51:00,
2013-01-29 16:12:00,22.0,14.0,-100.00,SW,236,2.0,7.0,72,0.01,,,0.17,277.000000,,2013-01-29 23:12:00,
2013-01-29 16:22:00,22.0,14.0,-100.00,SW,236,2.0,7.0,72,0.01,,,0.17,277.000000,,2013-01-29 23:22:00,
2013-01-29 16:32:00,22.0,14.0,-100.00,SW,236,2.0,7.0,72,0.01,,,0.17,277.000000,,2013-01-29 23:32:00,
2013-01-29 16:41:00,22.0,14.0,-100.00,SW,236,2.0,7.0,72,0.01,,,0.17,277.000000,,2013-01-29 23:41:00,
2013-01-29 16:51:00,19.0,14.0,-100.00,West,272,7.0,12.0,82,0.00,,,-99.99,85.000000,,2013-01-29 23:51:00,
2013-01-29 17:11:00,19.0,14.0,-100.00,West,272,7.0,12.0,82,0.00,,,-99.99,85.000000,,2013-01-30 00:11:00,
2013-01-29 17:22:00,19.0,14.0,-100.00,West,272,7.0,12.0,82,0.00,,,-99.99,85.000000,,2013-01-30 00:22:00,
2013-01-29 17:32:00,19.0,14.0,-100.00,West,272,7.0,12.0,82,0.00,,,-99.99,85.000000,,2013-01-30 00:32:00,
2013-01-29 17:42:00,19.0,14.0,-100.00,West,272,7.0,12.0,82,0.00,,,-99.99,85.000000,,2013-01-30 00:42:00,
2013-01-29 17:51:00,17.0,-99.9,-100.00,North,349,3.0,-999.0,-999,0.00,,,0.17,,,2013-01-30 00:51:00,
2013-01-29 18:23:00,17.0,-99.9,-100.00,North,349,3.0,-999.0,-999,0.00,,,0.17,,,2013-01-30 01:23:00,
2013-01-29 18:32:00,17.0,-99.9,-100.00,North,349,3.0,-999.0,-999,0.00,,,0.17,,,2013-01-30 01:32:00,
2013-01-29 18:43:00,17.0,-99.9,-100.00,North,349,3.0,-999.0,-999,0.00,,,0.17,,,2013-01-30 01:43:00,
2013-01-29 18:51:00,17.0,14.0,-100.00,NW,309,2.0,7.0,86,0.00,,,0.17,0.000000,,2013-01-30 01:51:00,
2013-01-29 19:12:00,17.0,14.0,-100.00,NW,309,2.0,7.0,86,0.00,,,0.17,0.000000,,2013-01-30 02:12:00,
2013-01-29 19:21:00,17.0,14.0,-100.00,NW,309,2.0,7.0,86,0.00,,,0.17,0.000000,,2013-01-30 02:21:00,
2013-01-29 19:33:00,17.0,14.0,-100.00,NW,309,2.0,7.0,86,0.00,,,0.17,0.000000,,2013-01-30 02:33:00,
2013-01-29 19:42:00,17.0,14.0,-100.00,NW,309,2.0,7.0,86,0.00,,,0.17,0.000000,,2013-01-30 02:42:00,
2013-01-29 19:51:00,18.0,15.0,-100.00,WNW,291,7.0,13.0,87,0.00,,,0.17,0.000000,,2013-01-30 02:51:00,
2013-01-29 20:11:00,18.0,15.0,-100.00,WNW,291,7.0,13.0,87,0.00,,,0.17,0.000000,,2013-01-30 03:11:00,
2013-01-29 20:22:00,18.0,15.0,-100.00,WNW,291,7.0,13.0,87,0.00,,,0.17,0.000000,,2013-01-30 03:22:00,
2013-01-29 20:32:00,18.0,15.0,-100.00,WNW,291,7.0,13.0,87,0.00,,,0.17,0.000000,,2013-01-30 03:32:00,
2013-01-29 20:42:00,18.0,15.0,-100.00,WNW,291,7.0,13.0,87,0.00,,,0.17,0.000000,,2013-01-30 03:42:00,
2013-01-29 20:51:00,17.0,14.0,-100.00,WNW,303,4.0,10.0,89,0.00,,,0.17,0.000000,,2013-01-30 03:51:00,
2013-01-29 21:22:00,17.0,14.0,-100.00,WNW,303,4.0,10.0,89,0.00,,,0.17,0.000000,,2013-01-30 04:22:00,
2013-01-29 21:32:00,17.0,14.0,-100.00,WNW,303,4.0,10.0,89,0.00,,,0.17,0.000000,,2013-01-30 04:32:00,
2013-01-29 21:41:00,17.0,14.0,-100.00,WNW,303,4.0,10.0,89,0.00,,,0.17,0.000000,,2013-01-30 04:41:00,
2013-01-29 21:51:00,17.0,15.0,-100.00,WNW,287,6.0,8.0,90,0.00,,,0.17,0.000000,,2013-01-30 04:51:00,
2013-01-29 22:12:00,17.0,15.0,-100.00,WNW,287,6.0,8.0,90,0.00,,,0.17,0.000000,,2013-01-30 05:12:00,
2013-01-29 22:22:00,17.0,15.0,-100.00,WNW,287,6.0,8.0,90,0.00,,,0.17,0.000000,,2013-01-30 05:22:00,
2013-01-29 22:32:00,17.0,15.0,-100.00,WNW,287,6.0,8.0,90,0.00,,,0.17,0.000000,,2013-01-30 05:32:00,
2013-01-29 22:42:00,17.0,15.0,-100.00,WNW,287,6.0,8.0,90,0.00,,,0.17,0.000000,,2013-01-30 05:42:00,
2013-01-29 23:51:00,16.0,11.0,-100.00,West,259,8.0,13.0,81,-99.99,,,0.17,0.000000,,2013-01-30 06:51:00,